Aeroporto :
LOGIN :

Iscrizione | Disclaimer

   EN    FR    IT 

 










Sommario :    VFR   VFR Marginale   IFR   IFR Intensivo   IFR Molto Intensivo
Visibilità : 
Base nubi : 
>= 8 km
>= 3000ft
5 / 8 km
1000 / 3000 ft
1500m / 5 km
500 / 1000 ft
800 / 1500m
200 / 500 ft
< 800m
< 200 ft
Simboli :   Temporali  Nebbia  Neve Forte  Precipitazioni Forti  Vento > 20 kt
SIGMETs :   Varie  Temporali  Ghiacco  Turbolenza  Onda orograficha  Ceneri Vulcaniche







- Altitudine del aeroporto : 87 ft
- Codice IATA : FSC
- Carte del aeroporto


LFKF - Figari

ULTIMO METAR :
  • 220200Z AUTO 23007KT 9999 FEW018 BKN029 BKN060 14/12 Q1016

METARs OBSOLETI :
  • 220130Z AUTO 24007KT 9999 FEW016 14/12 Q1016
  • 220100Z AUTO 24009KT 9999 FEW020 SCT064 14/12 Q1016
  • 220030Z AUTO 24009KT 9999 SCT066 BKN084 14/12 Q1016
  • 220000Z AUTO 24010KT 9999 FEW012 14/12 Q1016
  • 212330Z AUTO 24010KT 9999 FEW064 SCT078 15/12 Q1016

TAF TAF LFKF
Valido dal 21 a 15 ore il 22 a 15 ore UTC


211400Z 2115/2215 22015KT CAVOK
TEMPO 2122/2215 BKN020
Nessun NOTAM noto per questo aeroporto.



MetMap, La meteo Aeronautica in un colpo d'occhio ! - Copyright ORBIFLY Dicembre 2007 - Disclaimer

ORBIFLY MET'MAP TEAM :

Programmazione e sviluppo : Alexandra Zaïnal
Concezione e sviluppo : Baudouin d'Aumeries
Co-Programmazione e sviluppo : Marc-Olivier Méhu
Supporto tecnico e logistico : Manuel Goepfert
Aiuto per la traduzione : Arnaldo La Scala

Contatto : metmap@orbifly.com




FONTI E CREDITI :

   NOAA